sensor_id;sensor_type;location;lat;lon;timestamp;P1;durP1;ratioP1;P2;durP2;ratioP2
19193;SDS011;9729;52.296;13.260;2023-11-19T00:00:12;13.17;;;10.40;;
19193;SDS011;9729;52.296;13.260;2023-11-19T00:02:40;18.13;;;9.60;;
19193;SDS011;9729;52.296;13.260;2023-11-19T00:05:07;13.43;;;9.73;;
19193;SDS011;9729;52.296;13.260;2023-11-19T00:07:34;17.20;;;10.90;;
19193;SDS011;9729;52.296;13.260;2023-11-19T00:10:01;13.63;;;10.23;;
19193;SDS011;9729;52.296;13.260;2023-11-19T00:12:35;16.67;;;9.73;;
19193;SDS011;9729;52.296;13.260;2023-11-19T00:15:02;14.13;;;9.80;;
19193;SDS011;9729;52.296;13.260;2023-11-19T00:17:29;17.60;;;10.10;;
19193;SDS011;9729;52.296;13.260;2023-11-19T00:19:58;13.87;;;10.23;;
19193;SDS011;9729;52.296;13.260;2023-11-19T00:22:24;15.03;;;9.70;;
19193;SDS011;9729;52.296;13.260;2023-11-19T00:24:51;14.83;;;10.40;;
19193;SDS011;9729;52.296;13.260;2023-11-19T00:27:17;16.50;;;10.70;;
19193;SDS011;9729;52.296;13.260;2023-11-19T00:29:43;16.03;;;11.60;;
19193;SDS011;9729;52.296;13.260;2023-11-19T00:32:11;16.13;;;10.00;;
19193;SDS011;9729;52.296;13.260;2023-11-19T00:34:37;14.47;;;11.10;;
19193;SDS011;9729;52.296;13.260;2023-11-19T00:37:05;14.33;;;10.50;;
19193;SDS011;9729;52.296;13.260;2023-11-19T00:39:31;16.90;;;10.70;;
19193;SDS011;9729;52.296;13.260;2023-11-19T00:41:58;12.67;;;10.57;;
19193;SDS011;9729;52.296;13.260;2023-11-19T00:44:24;12.90;;;10.70;;
19193;SDS011;9729;52.296;13.260;2023-11-19T00:46:50;13.97;;;10.43;;
19193;SDS011;9729;52.296;13.260;2023-11-19T00:49:17;16.93;;;10.83;;
19193;SDS011;9729;52.296;13.260;2023-11-19T00:51:43;14.77;;;10.57;;
19193;SDS011;9729;52.296;13.260;2023-11-19T00:54:11;14.33;;;10.53;;
19193;SDS011;9729;52.296;13.260;2023-11-19T00:56:38;13.63;;;10.67;;
19193;SDS011;9729;52.296;13.260;2023-11-19T00:59:04;13.23;;;10.37;;
19193;SDS011;9729;52.296;13.260;2023-11-19T01:01:31;12.93;;;9.60;;
19193;SDS011;9729;52.296;13.260;2023-11-19T01:03:57;12.90;;;9.80;;
19193;SDS011;9729;52.296;13.260;2023-11-19T01:06:27;13.37;;;10.40;;
19193;SDS011;9729;52.296;13.260;2023-11-19T01:08:54;13.57;;;10.40;;
19193;SDS011;9729;52.296;13.260;2023-11-19T01:11:23;16.23;;;10.80;;
19193;SDS011;9729;52.296;13.260;2023-11-19T01:13:49;12.83;;;10.33;;
19193;SDS011;9729;52.296;13.260;2023-11-19T01:16:16;10.60;;;9.07;;
19193;SDS011;9729;52.296;13.260;2023-11-19T01:18:43;13.70;;;9.97;;
19193;SDS011;9729;52.296;13.260;2023-11-19T01:21:09;14.87;;;9.83;;
19193;SDS011;9729;52.296;13.260;2023-11-19T01:23:36;11.63;;;9.43;;
19193;SDS011;9729;52.296;13.260;2023-11-19T01:26:03;18.07;;;10.17;;
19193;SDS011;9729;52.296;13.260;2023-11-19T01:28:31;12.13;;;9.13;;
19193;SDS011;9729;52.296;13.260;2023-11-19T01:30:58;12.17;;;10.03;;
19193;SDS011;9729;52.296;13.260;2023-11-19T01:33:24;13.00;;;9.80;;
19193;SDS011;9729;52.296;13.260;2023-11-19T01:35:50;13.57;;;9.80;;
19193;SDS011;9729;52.296;13.260;2023-11-19T01:38:17;12.40;;;9.83;;
19193;SDS011;9729;52.296;13.260;2023-11-19T01:40:43;12.73;;;10.50;;
19193;SDS011;9729;52.296;13.260;2023-11-19T01:43:09;13.23;;;9.37;;
19193;SDS011;9729;52.296;13.260;2023-11-19T01:45:38;11.70;;;9.57;;
19193;SDS011;9729;52.296;13.260;2023-11-19T01:48:05;13.53;;;10.30;;
19193;SDS011;9729;52.296;13.260;2023-11-19T01:50:32;11.90;;;9.97;;
19193;SDS011;9729;52.296;13.260;2023-11-19T01:52:59;12.77;;;10.17;;
19193;SDS011;9729;52.296;13.260;2023-11-19T01:55:25;12.07;;;9.47;;
19193;SDS011;9729;52.296;13.260;2023-11-19T01:57:53;12.03;;;9.30;;
19193;SDS011;9729;52.296;13.260;2023-11-19T02:00:20;17.33;;;10.17;;
19193;SDS011;9729;52.296;13.260;2023-11-19T02:02:48;14.33;;;9.83;;
19193;SDS011;9729;52.296;13.260;2023-11-19T02:05:16;11.43;;;9.60;;
19193;SDS011;9729;52.296;13.260;2023-11-19T02:07:42;11.23;;;9.53;;
19193;SDS011;9729;52.296;13.260;2023-11-19T02:10:09;13.07;;;10.43;;
19193;SDS011;9729;52.296;13.260;2023-11-19T02:12:39;15.33;;;10.50;;
19193;SDS011;9729;52.296;13.260;2023-11-19T02:15:08;14.37;;;10.07;;
19193;SDS011;9729;52.296;13.260;2023-11-19T02:17:35;13.13;;;9.53;;
19193;SDS011;9729;52.296;13.260;2023-11-19T02:20:04;12.63;;;10.13;;
19193;SDS011;9729;52.296;13.260;2023-11-19T02:22:34;20.77;;;9.83;;
19193;SDS011;9729;52.296;13.260;2023-11-19T02:25:04;11.53;;;10.07;;
19193;SDS011;9729;52.296;13.260;2023-11-19T02:27:41;12.60;;;9.30;;
19193;SDS011;9729;52.296;13.260;2023-11-19T02:30:13;11.10;;;8.67;;
19193;SDS011;9729;52.296;13.260;2023-11-19T02:32:40;9.70;;;8.30;;
19193;SDS011;9729;52.296;13.260;2023-11-19T02:35:07;11.67;;;8.77;;
19193;SDS011;9729;52.296;13.260;2023-11-19T02:37:33;12.63;;;9.23;;
19193;SDS011;9729;52.296;13.260;2023-11-19T02:40:00;10.70;;;8.30;;
19193;SDS011;9729;52.296;13.260;2023-11-19T02:42:35;10.83;;;8.10;;
19193;SDS011;9729;52.296;13.260;2023-11-19T02:45:03;12.73;;;8.80;;
19193;SDS011;9729;52.296;13.260;2023-11-19T02:47:31;10.37;;;8.47;;
19193;SDS011;9729;52.296;13.260;2023-11-19T02:49:58;10.57;;;7.93;;
19193;SDS011;9729;52.296;13.260;2023-11-19T02:52:24;10.67;;;8.17;;
19193;SDS011;9729;52.296;13.260;2023-11-19T02:54:51;10.37;;;7.63;;
19193;SDS011;9729;52.296;13.260;2023-11-19T02:57:18;10.20;;;7.30;;
19193;SDS011;9729;52.296;13.260;2023-11-19T02:59:46;10.87;;;8.00;;
19193;SDS011;9729;52.296;13.260;2023-11-19T03:02:14;7.97;;;7.03;;
19193;SDS011;9729;52.296;13.260;2023-11-19T03:04:41;11.23;;;8.13;;
19193;SDS011;9729;52.296;13.260;2023-11-19T03:07:08;7.63;;;6.90;;
19193;SDS011;9729;52.296;13.260;2023-11-19T03:09:34;8.83;;;7.57;;
19193;SDS011;9729;52.296;13.260;2023-11-19T03:12:01;9.40;;;7.03;;
19193;SDS011;9729;52.296;13.260;2023-11-19T03:14:27;7.57;;;6.33;;
19193;SDS011;9729;52.296;13.260;2023-11-19T03:16:54;9.00;;;6.90;;
19193;SDS011;9729;52.296;13.260;2023-11-19T03:19:21;6.87;;;6.10;;
19193;SDS011;9729;52.296;13.260;2023-11-19T03:21:48;8.97;;;6.23;;
19193;SDS011;9729;52.296;13.260;2023-11-19T03:24:14;6.97;;;6.27;;
19193;SDS011;9729;52.296;13.260;2023-11-19T03:26:42;8.30;;;5.90;;
19193;SDS011;9729;52.296;13.260;2023-11-19T03:29:08;8.77;;;6.50;;
19193;SDS011;9729;52.296;13.260;2023-11-19T03:31:35;7.27;;;6.13;;
19193;SDS011;9729;52.296;13.260;2023-11-19T03:34:01;7.90;;;6.73;;
19193;SDS011;9729;52.296;13.260;2023-11-19T03:36:32;9.27;;;6.43;;
19193;SDS011;9729;52.296;13.260;2023-11-19T03:38:59;11.30;;;6.77;;
19193;SDS011;9729;52.296;13.260;2023-11-19T03:41:25;8.37;;;7.57;;
19193;SDS011;9729;52.296;13.260;2023-11-19T03:43:51;7.60;;;6.90;;
19193;SDS011;9729;52.296;13.260;2023-11-19T03:46:19;7.60;;;6.80;;
19193;SDS011;9729;52.296;13.260;2023-11-19T03:48:46;9.83;;;7.63;;
19193;SDS011;9729;52.296;13.260;2023-11-19T03:51:12;8.80;;;7.83;;
19193;SDS011;9729;52.296;13.260;2023-11-19T03:53:41;8.93;;;7.97;;
19193;SDS011;9729;52.296;13.260;2023-11-19T03:56:08;9.37;;;7.13;;
19193;SDS011;9729;52.296;13.260;2023-11-19T03:58:35;11.00;;;8.67;;
19193;SDS011;9729;52.296;13.260;2023-11-19T04:01:03;8.77;;;7.87;;
19193;SDS011;9729;52.296;13.260;2023-11-19T04:03:29;10.50;;;8.20;;
19193;SDS011;9729;52.296;13.260;2023-11-19T04:05:55;9.30;;;7.53;;
19193;SDS011;9729;52.296;13.260;2023-11-19T04:08:22;9.83;;;7.50;;
19193;SDS011;9729;52.296;13.260;2023-11-19T04:10:50;13.87;;;8.63;;
19193;SDS011;9729;52.296;13.260;2023-11-19T04:13:16;11.17;;;8.20;;
19193;SDS011;9729;52.296;13.260;2023-11-19T04:15:42;8.87;;;7.97;;
19193;SDS011;9729;52.296;13.260;2023-11-19T04:18:09;10.90;;;8.77;;
19193;SDS011;9729;52.296;13.260;2023-11-19T04:20:35;10.40;;;7.97;;
19193;SDS011;9729;52.296;13.260;2023-11-19T04:23:02;12.63;;;8.77;;
19193;SDS011;9729;52.296;13.260;2023-11-19T04:25:28;12.70;;;9.90;;
19193;SDS011;9729;52.296;13.260;2023-11-19T04:27:56;11.50;;;9.00;;
19193;SDS011;9729;52.296;13.260;2023-11-19T04:30:22;12.33;;;9.17;;
19193;SDS011;9729;52.296;13.260;2023-11-19T04:32:49;13.30;;;8.73;;
19193;SDS011;9729;52.296;13.260;2023-11-19T04:35:16;13.83;;;9.77;;
19193;SDS011;9729;52.296;13.260;2023-11-19T04:37:44;16.27;;;9.43;;
19193;SDS011;9729;52.296;13.260;2023-11-19T04:40:10;15.57;;;9.47;;
19193;SDS011;9729;52.296;13.260;2023-11-19T04:42:37;12.23;;;9.43;;
19193;SDS011;9729;52.296;13.260;2023-11-19T04:45:07;10.60;;;8.50;;
19193;SDS011;9729;52.296;13.260;2023-11-19T04:47:35;9.63;;;8.40;;
19193;SDS011;9729;52.296;13.260;2023-11-19T04:50:01;13.27;;;9.10;;
19193;SDS011;9729;52.296;13.260;2023-11-19T04:52:28;11.40;;;9.10;;
19193;SDS011;9729;52.296;13.260;2023-11-19T04:54:54;13.83;;;9.17;;
19193;SDS011;9729;52.296;13.260;2023-11-19T04:57:20;10.87;;;9.07;;
19193;SDS011;9729;52.296;13.260;2023-11-19T04:59:47;11.53;;;9.63;;
19193;SDS011;9729;52.296;13.260;2023-11-19T05:02:14;13.40;;;9.27;;
19193;SDS011;9729;52.296;13.260;2023-11-19T05:04:42;9.80;;;8.80;;
19193;SDS011;9729;52.296;13.260;2023-11-19T05:07:08;10.00;;;8.63;;
19193;SDS011;9729;52.296;13.260;2023-11-19T05:09:34;12.23;;;8.83;;
19193;SDS011;9729;52.296;13.260;2023-11-19T05:12:01;13.40;;;9.77;;
19193;SDS011;9729;52.296;13.260;2023-11-19T05:14:27;13.60;;;9.90;;
19193;SDS011;9729;52.296;13.260;2023-11-19T05:16:54;12.17;;;9.43;;
19193;SDS011;9729;52.296;13.260;2023-11-19T05:19:21;13.17;;;10.07;;
19193;SDS011;9729;52.296;13.260;2023-11-19T05:21:48;11.60;;;9.13;;
19193;SDS011;9729;52.296;13.260;2023-11-19T05:24:17;21.33;;;10.87;;
19193;SDS011;9729;52.296;13.260;2023-11-19T05:26:43;11.13;;;9.10;;
19193;SDS011;9729;52.296;13.260;2023-11-19T05:29:09;13.00;;;9.83;;
19193;SDS011;9729;52.296;13.260;2023-11-19T05:31:36;11.87;;;10.03;;
19193;SDS011;9729;52.296;13.260;2023-11-19T05:34:02;12.93;;;10.57;;
19193;SDS011;9729;52.296;13.260;2023-11-19T05:36:30;12.97;;;9.77;;
19193;SDS011;9729;52.296;13.260;2023-11-19T05:38:56;14.97;;;10.50;;
19193;SDS011;9729;52.296;13.260;2023-11-19T05:41:23;13.10;;;10.03;;
19193;SDS011;9729;52.296;13.260;2023-11-19T05:43:49;14.37;;;10.40;;
19193;SDS011;9729;52.296;13.260;2023-11-19T05:46:16;12.37;;;10.53;;
19193;SDS011;9729;52.296;13.260;2023-11-19T05:48:43;16.63;;;10.70;;
19193;SDS011;9729;52.296;13.260;2023-11-19T05:51:11;12.40;;;10.00;;
19193;SDS011;9729;52.296;13.260;2023-11-19T05:53:40;12.50;;;10.47;;
19193;SDS011;9729;52.296;13.260;2023-11-19T05:56:06;13.00;;;10.17;;
19193;SDS011;9729;52.296;13.260;2023-11-19T05:58:34;14.50;;;10.47;;
19193;SDS011;9729;52.296;13.260;2023-11-19T06:01:01;13.57;;;10.63;;
19193;SDS011;9729;52.296;13.260;2023-11-19T06:03:28;12.13;;;10.63;;
19193;SDS011;9729;52.296;13.260;2023-11-19T06:05:54;14.03;;;10.23;;
19193;SDS011;9729;52.296;13.260;2023-11-19T06:08:20;13.90;;;10.23;;
19193;SDS011;9729;52.296;13.260;2023-11-19T06:10:48;18.60;;;10.57;;
19193;SDS011;9729;52.296;13.260;2023-11-19T06:13:16;16.97;;;11.30;;
19193;SDS011;9729;52.296;13.260;2023-11-19T06:15:42;12.43;;;11.13;;
19193;SDS011;9729;52.296;13.260;2023-11-19T06:18:09;18.93;;;11.07;;
19193;SDS011;9729;52.296;13.260;2023-11-19T06:20:36;15.47;;;11.33;;
19193;SDS011;9729;52.296;13.260;2023-11-19T06:23:03;16.17;;;10.67;;
19193;SDS011;9729;52.296;13.260;2023-11-19T06:25:29;16.37;;;12.03;;
19193;SDS011;9729;52.296;13.260;2023-11-19T06:27:57;13.40;;;11.30;;
19193;SDS011;9729;52.296;13.260;2023-11-19T06:30:23;16.17;;;11.33;;
19193;SDS011;9729;52.296;13.260;2023-11-19T06:32:50;14.60;;;11.23;;
19193;SDS011;9729;52.296;13.260;2023-11-19T06:35:17;16.97;;;12.20;;
19193;SDS011;9729;52.296;13.260;2023-11-19T06:37:43;15.90;;;11.70;;
19193;SDS011;9729;52.296;13.260;2023-11-19T06:40:10;16.60;;;11.93;;
19193;SDS011;9729;52.296;13.260;2023-11-19T06:42:37;14.73;;;11.47;;
19193;SDS011;9729;52.296;13.260;2023-11-19T06:45:05;16.20;;;11.80;;
19193;SDS011;9729;52.296;13.260;2023-11-19T06:47:32;15.03;;;10.43;;
19193;SDS011;9729;52.296;13.260;2023-11-19T06:49:59;15.83;;;11.53;;
19193;SDS011;9729;52.296;13.260;2023-11-19T06:52:25;12.87;;;10.77;;
19193;SDS011;9729;52.296;13.260;2023-11-19T06:54:51;18.37;;;9.90;;
19193;SDS011;9729;52.296;13.260;2023-11-19T06:57:17;13.27;;;9.83;;
19193;SDS011;9729;52.296;13.260;2023-11-19T06:59:45;16.40;;;10.50;;
19193;SDS011;9729;52.296;13.260;2023-11-19T07:02:13;12.67;;;10.30;;
19193;SDS011;9729;52.296;13.260;2023-11-19T07:04:39;13.13;;;9.90;;
19193;SDS011;9729;52.296;13.260;2023-11-19T07:07:06;11.10;;;8.07;;
19193;SDS011;9729;52.296;13.260;2023-11-19T07:09:32;8.90;;;7.90;;
19193;SDS011;9729;52.296;13.260;2023-11-19T07:11:58;10.93;;;7.97;;
19193;SDS011;9729;52.296;13.260;2023-11-19T07:14:26;9.80;;;7.73;;
19193;SDS011;9729;52.296;13.260;2023-11-19T07:16:53;9.97;;;7.57;;
19193;SDS011;9729;52.296;13.260;2023-11-19T07:19:22;7.90;;;7.10;;
19193;SDS011;9729;52.296;13.260;2023-11-19T07:21:48;10.20;;;7.23;;
19193;SDS011;9729;52.296;13.260;2023-11-19T07:24:14;7.97;;;6.80;;
19193;SDS011;9729;52.296;13.260;2023-11-19T07:26:42;10.27;;;7.03;;
19193;SDS011;9729;52.296;13.260;2023-11-19T07:29:09;8.37;;;7.47;;
19193;SDS011;9729;52.296;13.260;2023-11-19T07:31:35;10.13;;;6.87;;
19193;SDS011;9729;52.296;13.260;2023-11-19T07:34:02;8.07;;;6.40;;
19193;SDS011;9729;52.296;13.260;2023-11-19T07:36:29;6.70;;;6.10;;
19193;SDS011;9729;52.296;13.260;2023-11-19T07:38:57;6.70;;;6.00;;
19193;SDS011;9729;52.296;13.260;2023-11-19T07:41:23;7.20;;;6.27;;
19193;SDS011;9729;52.296;13.260;2023-11-19T07:43:50;10.13;;;6.80;;
19193;SDS011;9729;52.296;13.260;2023-11-19T07:46:17;7.80;;;6.57;;
19193;SDS011;9729;52.296;13.260;2023-11-19T07:48:44;7.47;;;6.47;;
19193;SDS011;9729;52.296;13.260;2023-11-19T07:51:12;7.17;;;6.47;;
19193;SDS011;9729;52.296;13.260;2023-11-19T07:53:39;10.07;;;6.23;;
19193;SDS011;9729;52.296;13.260;2023-11-19T07:56:06;6.63;;;6.03;;
19193;SDS011;9729;52.296;13.260;2023-11-19T07:58:33;6.80;;;6.07;;
19193;SDS011;9729;52.296;13.260;2023-11-19T08:00:59;6.87;;;6.07;;
19193;SDS011;9729;52.296;13.260;2023-11-19T08:03:26;6.50;;;5.90;;
19193;SDS011;9729;52.296;13.260;2023-11-19T08:05:54;7.20;;;5.87;;
19193;SDS011;9729;52.296;13.260;2023-11-19T08:08:21;11.73;;;5.80;;
19193;SDS011;9729;52.296;13.260;2023-11-19T08:10:47;8.03;;;6.07;;
19193;SDS011;9729;52.296;13.260;2023-11-19T08:13:16;7.97;;;5.97;;
19193;SDS011;9729;52.296;13.260;2023-11-19T08:15:42;7.07;;;6.43;;
19193;SDS011;9729;52.296;13.260;2023-11-19T08:18:09;6.57;;;5.83;;
19193;SDS011;9729;52.296;13.260;2023-11-19T08:20:35;6.57;;;5.77;;
19193;SDS011;9729;52.296;13.260;2023-11-19T08:23:02;6.67;;;6.07;;
19193;SDS011;9729;52.296;13.260;2023-11-19T08:25:30;9.77;;;6.10;;
19193;SDS011;9729;52.296;13.260;2023-11-19T08:27:59;7.50;;;5.93;;
19193;SDS011;9729;52.296;13.260;2023-11-19T08:30:26;6.57;;;5.93;;
19193;SDS011;9729;52.296;13.260;2023-11-19T08:32:52;8.10;;;6.83;;
19193;SDS011;9729;52.296;13.260;2023-11-19T08:35:19;6.53;;;5.93;;
19193;SDS011;9729;52.296;13.260;2023-11-19T08:37:45;6.87;;;6.27;;
19193;SDS011;9729;52.296;13.260;2023-11-19T08:40:12;6.40;;;5.83;;
19193;SDS011;9729;52.296;13.260;2023-11-19T08:42:39;7.03;;;5.90;;
19193;SDS011;9729;52.296;13.260;2023-11-19T08:45:07;6.10;;;5.60;;
19193;SDS011;9729;52.296;13.260;2023-11-19T08:47:35;6.37;;;5.73;;
19193;SDS011;9729;52.296;13.260;2023-11-19T08:50:02;6.47;;;5.87;;
19193;SDS011;9729;52.296;13.260;2023-11-19T08:52:29;6.50;;;5.90;;
19193;SDS011;9729;52.296;13.260;2023-11-19T08:54:55;6.93;;;5.70;;
19193;SDS011;9729;52.296;13.260;2023-11-19T08:57:22;8.97;;;5.90;;
19193;SDS011;9729;52.296;13.260;2023-11-19T08:59:48;6.10;;;5.63;;
19193;SDS011;9729;52.296;13.260;2023-11-19T09:02:16;6.97;;;5.53;;
19193;SDS011;9729;52.296;13.260;2023-11-19T09:04:43;8.60;;;5.27;;
19193;SDS011;9729;52.296;13.260;2023-11-19T09:07:09;5.47;;;4.80;;
19193;SDS011;9729;52.296;13.260;2023-11-19T09:09:36;5.77;;;4.93;;
19193;SDS011;9729;52.296;13.260;2023-11-19T09:12:02;6.90;;;4.97;;
19193;SDS011;9729;52.296;13.260;2023-11-19T09:14:29;9.83;;;4.97;;
19193;SDS011;9729;52.296;13.260;2023-11-19T09:16:55;8.37;;;4.60;;
19193;SDS011;9729;52.296;13.260;2023-11-19T09:19:23;5.33;;;3.53;;
19193;SDS011;9729;52.296;13.260;2023-11-19T09:21:49;9.57;;;4.20;;
19193;SDS011;9729;52.296;13.260;2023-11-19T09:24:15;4.40;;;3.90;;
19193;SDS011;9729;52.296;13.260;2023-11-19T09:26:42;5.33;;;3.90;;
19193;SDS011;9729;52.296;13.260;2023-11-19T09:29:08;6.40;;;3.63;;
19193;SDS011;9729;52.296;13.260;2023-11-19T09:31:35;5.30;;;3.60;;
19193;SDS011;9729;52.296;13.260;2023-11-19T09:34:04;4.73;;;3.70;;
19193;SDS011;9729;52.296;13.260;2023-11-19T09:36:32;6.47;;;3.47;;
19193;SDS011;9729;52.296;13.260;2023-11-19T09:38:59;5.70;;;3.67;;
19193;SDS011;9729;52.296;13.260;2023-11-19T09:41:26;4.20;;;3.90;;
19193;SDS011;9729;52.296;13.260;2023-11-19T09:43:53;6.27;;;3.93;;
19193;SDS011;9729;52.296;13.260;2023-11-19T09:46:20;5.80;;;3.80;;
19193;SDS011;9729;52.296;13.260;2023-11-19T09:48:50;4.33;;;3.77;;
19193;SDS011;9729;52.296;13.260;2023-11-19T09:51:19;5.30;;;4.13;;
19193;SDS011;9729;52.296;13.260;2023-11-19T09:53:47;3.80;;;3.50;;
19193;SDS011;9729;52.296;13.260;2023-11-19T09:56:14;7.27;;;4.67;;
19193;SDS011;9729;52.296;13.260;2023-11-19T09:58:41;5.87;;;3.80;;
19193;SDS011;9729;52.296;13.260;2023-11-19T10:01:08;11.30;;;4.33;;
19193;SDS011;9729;52.296;13.260;2023-11-19T10:03:37;5.07;;;4.30;;
19193;SDS011;9729;52.296;13.260;2023-11-19T10:06:05;8.53;;;4.30;;
19193;SDS011;9729;52.296;13.260;2023-11-19T10:08:32;7.70;;;4.40;;
19193;SDS011;9729;52.296;13.260;2023-11-19T10:11:00;8.70;;;4.20;;
19193;SDS011;9729;52.296;13.260;2023-11-19T10:13:26;9.67;;;5.30;;
19193;SDS011;9729;52.296;13.260;2023-11-19T10:15:54;12.43;;;5.13;;
19193;SDS011;9729;52.296;13.260;2023-11-19T10:18:23;11.47;;;5.77;;
19193;SDS011;9729;52.296;13.260;2023-11-19T10:20:50;10.33;;;5.70;;
19193;SDS011;9729;52.296;13.260;2023-11-19T10:23:16;6.43;;;4.33;;
19193;SDS011;9729;52.296;13.260;2023-11-19T10:25:43;5.03;;;4.60;;
19193;SDS011;9729;52.296;13.260;2023-11-19T10:28:10;7.80;;;4.10;;
19193;SDS011;9729;52.296;13.260;2023-11-19T10:30:37;6.63;;;4.23;;
19193;SDS011;9729;52.296;13.260;2023-11-19T10:33:04;7.87;;;4.30;;
19193;SDS011;9729;52.296;13.260;2023-11-19T10:35:32;9.60;;;4.63;;
19193;SDS011;9729;52.296;13.260;2023-11-19T10:37:59;5.53;;;4.43;;
19193;SDS011;9729;52.296;13.260;2023-11-19T10:40:37;10.03;;;4.13;;
19193;SDS011;9729;52.296;13.260;2023-11-19T10:43:04;9.00;;;5.17;;
19193;SDS011;9729;52.296;13.260;2023-11-19T10:45:34;9.63;;;4.80;;
19193;SDS011;9729;52.296;13.260;2023-11-19T10:48:00;8.20;;;4.57;;
19193;SDS011;9729;52.296;13.260;2023-11-19T10:50:29;9.83;;;5.00;;
19193;SDS011;9729;52.296;13.260;2023-11-19T10:52:56;12.60;;;5.47;;
19193;SDS011;9729;52.296;13.260;2023-11-19T10:55:25;12.20;;;4.80;;
19193;SDS011;9729;52.296;13.260;2023-11-19T10:57:53;15.60;;;4.97;;
19193;SDS011;9729;52.296;13.260;2023-11-19T11:00:24;7.77;;;4.43;;
19193;SDS011;9729;52.296;13.260;2023-11-19T11:02:54;18.40;;;7.93;;
19193;SDS011;9729;52.296;13.260;2023-11-19T11:05:21;20.20;;;9.23;;
19193;SDS011;9729;52.296;13.260;2023-11-19T11:07:48;24.87;;;7.83;;
19193;SDS011;9729;52.296;13.260;2023-11-19T11:10:16;26.63;;;9.43;;
19193;SDS011;9729;52.296;13.260;2023-11-19T11:12:42;20.73;;;5.63;;
19193;SDS011;9729;52.296;13.260;2023-11-19T11:15:10;13.83;;;5.10;;
19193;SDS011;9729;52.296;13.260;2023-11-19T11:17:38;12.80;;;5.07;;
19193;SDS011;9729;52.296;13.260;2023-11-19T11:20:07;13.37;;;5.03;;
19193;SDS011;9729;52.296;13.260;2023-11-19T11:22:39;8.63;;;5.13;;
19193;SDS011;9729;52.296;13.260;2023-11-19T11:25:16;18.87;;;4.63;;
19193;SDS011;9729;52.296;13.260;2023-11-19T11:27:52;19.53;;;7.03;;
19193;SDS011;9729;52.296;13.260;2023-11-19T11:30:27;12.53;;;5.43;;
19193;SDS011;9729;52.296;13.260;2023-11-19T11:33:02;16.33;;;5.77;;
19193;SDS011;9729;52.296;13.260;2023-11-19T11:35:52;13.47;;;5.87;;
19193;SDS011;9729;52.296;13.260;2023-11-19T11:38:21;12.70;;;5.67;;
19193;SDS011;9729;52.296;13.260;2023-11-19T11:43:44;23.13;;;6.43;;
19193;SDS011;9729;52.296;13.260;2023-11-19T11:46:20;26.20;;;6.10;;
19193;SDS011;9729;52.296;13.260;2023-11-19T11:49:25;11.87;;;6.03;;
19193;SDS011;9729;52.296;13.260;2023-11-19T11:52:02;13.03;;;4.60;;
19193;SDS011;9729;52.296;13.260;2023-11-19T11:54:29;19.70;;;5.40;;
19193;SDS011;9729;52.296;13.260;2023-11-19T11:57:03;16.93;;;4.93;;
19193;SDS011;9729;52.296;13.260;2023-11-19T11:59:36;15.77;;;4.57;;
19193;SDS011;9729;52.296;13.260;2023-11-19T12:02:03;14.13;;;5.27;;
19193;SDS011;9729;52.296;13.260;2023-11-19T12:04:30;19.53;;;5.77;;
19193;SDS011;9729;52.296;13.260;2023-11-19T12:07:05;22.00;;;5.43;;
19193;SDS011;9729;52.296;13.260;2023-11-19T12:09:32;12.73;;;5.43;;
19193;SDS011;9729;52.296;13.260;2023-11-19T12:12:07;14.27;;;5.23;;
19193;SDS011;9729;52.296;13.260;2023-11-19T12:17:43;22.13;;;5.80;;
19193;SDS011;9729;52.296;13.260;2023-11-19T12:20:15;16.63;;;5.37;;
19193;SDS011;9729;52.296;13.260;2023-11-19T12:22:45;25.40;;;6.47;;
19193;SDS011;9729;52.296;13.260;2023-11-19T12:25:14;23.00;;;6.90;;
19193;SDS011;9729;52.296;13.260;2023-11-19T12:27:41;20.00;;;6.40;;
19193;SDS011;9729;52.296;13.260;2023-11-19T12:30:09;25.53;;;6.60;;
19193;SDS011;9729;52.296;13.260;2023-11-19T12:32:39;22.20;;;6.33;;
19193;SDS011;9729;52.296;13.260;2023-11-19T12:35:07;17.10;;;5.87;;
19193;SDS011;9729;52.296;13.260;2023-11-19T12:37:40;23.07;;;7.10;;
19193;SDS011;9729;52.296;13.260;2023-11-19T12:40:12;18.93;;;7.10;;
19193;SDS011;9729;52.296;13.260;2023-11-19T12:42:40;28.10;;;7.13;;
19193;SDS011;9729;52.296;13.260;2023-11-19T12:45:07;32.63;;;9.67;;
19193;SDS011;9729;52.296;13.260;2023-11-19T12:47:36;27.33;;;8.30;;
19193;SDS011;9729;52.296;13.260;2023-11-19T12:50:03;26.20;;;7.63;;
19193;SDS011;9729;52.296;13.260;2023-11-19T12:52:30;19.57;;;6.77;;
19193;SDS011;9729;52.296;13.260;2023-11-19T12:54:57;24.93;;;7.37;;
19193;SDS011;9729;52.296;13.260;2023-11-19T12:57:36;27.03;;;7.23;;
19193;SDS011;9729;52.296;13.260;2023-11-19T13:00:04;21.83;;;7.17;;
19193;SDS011;9729;52.296;13.260;2023-11-19T13:02:46;28.23;;;6.33;;
19193;SDS011;9729;52.296;13.260;2023-11-19T13:05:20;26.83;;;7.60;;
19193;SDS011;9729;52.296;13.260;2023-11-19T13:07:48;19.80;;;6.63;;
19193;SDS011;9729;52.296;13.260;2023-11-19T13:10:14;32.37;;;7.60;;
19193;SDS011;9729;52.296;13.260;2023-11-19T13:12:42;27.27;;;8.70;;
19193;SDS011;9729;52.296;13.260;2023-11-19T13:15:21;33.20;;;9.87;;
19193;SDS011;9729;52.296;13.260;2023-11-19T13:17:48;36.10;;;7.77;;
19193;SDS011;9729;52.296;13.260;2023-11-19T13:20:15;20.33;;;6.40;;
19193;SDS011;9729;52.296;13.260;2023-11-19T13:22:53;28.83;;;7.70;;
19193;SDS011;9729;52.296;13.260;2023-11-19T13:25:20;35.03;;;7.20;;
19193;SDS011;9729;52.296;13.260;2023-11-19T13:27:47;19.60;;;7.10;;
19193;SDS011;9729;52.296;13.260;2023-11-19T13:30:14;32.97;;;6.93;;
19193;SDS011;9729;52.296;13.260;2023-11-19T13:32:42;35.30;;;7.67;;
19193;SDS011;9729;52.296;13.260;2023-11-19T13:35:09;22.67;;;7.00;;
19193;SDS011;9729;52.296;13.260;2023-11-19T13:37:36;26.73;;;7.37;;
19193;SDS011;9729;52.296;13.260;2023-11-19T13:40:03;26.40;;;6.90;;
19193;SDS011;9729;52.296;13.260;2023-11-19T13:42:30;37.17;;;8.07;;
19193;SDS011;9729;52.296;13.260;2023-11-19T13:44:58;29.97;;;7.60;;
19193;SDS011;9729;52.296;13.260;2023-11-19T13:47:25;28.60;;;7.53;;
19193;SDS011;9729;52.296;13.260;2023-11-19T13:49:51;29.40;;;6.60;;
19193;SDS011;9729;52.296;13.260;2023-11-19T13:52:18;23.47;;;6.63;;
19193;SDS011;9729;52.296;13.260;2023-11-19T13:54:44;29.23;;;7.80;;
19193;SDS011;9729;52.296;13.260;2023-11-19T14:03:55;23.87;;;6.77;;
19193;SDS011;9729;52.296;13.260;2023-11-19T14:06:22;32.87;;;7.63;;
19193;SDS011;9729;52.296;13.260;2023-11-19T14:08:48;29.70;;;7.70;;
19193;SDS011;9729;52.296;13.260;2023-11-19T14:11:16;30.67;;;7.70;;
19193;SDS011;9729;52.296;13.260;2023-11-19T14:13:42;39.83;;;7.30;;
19193;SDS011;9729;52.296;13.260;2023-11-19T14:16:08;31.47;;;6.93;;
19193;SDS011;9729;52.296;13.260;2023-11-19T14:18:35;27.83;;;7.23;;
19193;SDS011;9729;52.296;13.260;2023-11-19T14:21:03;30.10;;;7.90;;
19193;SDS011;9729;52.296;13.260;2023-11-19T14:23:30;30.80;;;7.80;;
19193;SDS011;9729;52.296;13.260;2023-11-19T14:25:56;36.67;;;7.33;;
19193;SDS011;9729;52.296;13.260;2023-11-19T14:28:22;33.40;;;8.20;;
19193;SDS011;9729;52.296;13.260;2023-11-19T14:30:50;20.27;;;6.10;;
19193;SDS011;9729;52.296;13.260;2023-11-19T14:33:21;22.93;;;6.60;;
19193;SDS011;9729;52.296;13.260;2023-11-19T14:35:48;27.10;;;6.37;;
19193;SDS011;9729;52.296;13.260;2023-11-19T14:38:16;27.47;;;8.57;;
19193;SDS011;9729;52.296;13.260;2023-11-19T14:40:42;26.90;;;7.27;;
19193;SDS011;9729;52.296;13.260;2023-11-19T14:43:09;24.30;;;6.27;;
19193;SDS011;9729;52.296;13.260;2023-11-19T14:45:36;24.17;;;5.80;;
19193;SDS011;9729;52.296;13.260;2023-11-19T14:48:02;32.10;;;8.13;;
19193;SDS011;9729;52.296;13.260;2023-11-19T14:50:29;24.20;;;9.53;;